Wolford, Virginia
Current Conditions -  °F | °C
As of 9:15 PM on Tuesday 21 Oct 2014 (Local Time) from KJFZ Reporting Station
Overcast Overcast  
Wind Chill: 45°   Ceiling: 1700
Heat Index: 47°   Visibility: 10mi
Dew Point: 41°   Wind: 5mph
Humidity: 79%   Direction: 320°NW
Pressure: 30.06"   Gusts: NA
Location:  37.36°N, 81.99°W
Report Text: KJFZ 220115Z AUTO 32004KT 10SM BKN017 BKN024 OVC034 09/05 A3006 RMK AO2 T00850050
Loading
Personal Weather Stations






























Interactive Weather Map
Tropical Storm Tracking
New forecast layout! Learn more

10-Day Weather Forecast

Advertisements
Track Severe Weather on mobile